Terminal Aerodrome Forecast
Issued by NWS Nashville, TN

Home | Current Version | Previous Version | Text Only | Print | Product List | Glossary On
Versions: 1 2 3 4 5 6 7 8 9 10 11 12 13 14 15 16 17 18 19 20 21 22 23 24 25 26 27 28 29 30 31 32 33 34 35 36 37 38 39 40 41 42 43 44 45 46 47
000
FTUS44 KOHX 231120
TAFCSV
TAF
KCSV 231120Z 2312/2412 33014G23KT P6SM -SHRA SCT008 OVC025
      TEMPO 2312/2316 4SM BR OVC008
     FM231600 32013G21KT P6SM VCSH OVC020
     FM232300 31011G17KT P6SM OVC015
     FM240600 31006KT 5SM BR OVC012=

USA.gov is the U.S. government's official web portal to all federal, state and local government web resources and services.